sensor_id;sensor_type;location;lat;lon;timestamp;pressure;altitude;pressure_sealevel;temperature
35582;BMP180;21687;48.900;9.188;2022-07-23T00:01:00;98437.00;;;23.90
35582;BMP180;21687;48.900;9.188;2022-07-23T00:03:28;98439.00;;;23.90
35582;BMP180;21687;48.900;9.188;2022-07-23T00:05:54;98440.00;;;24.00
35582;BMP180;21687;48.900;9.188;2022-07-23T00:08:20;98433.00;;;23.90
35582;BMP180;21687;48.900;9.188;2022-07-23T00:10:47;98420.00;;;23.90
35582;BMP180;21687;48.900;9.188;2022-07-23T00:13:13;98410.00;;;23.90
35582;BMP180;21687;48.900;9.188;2022-07-23T00:15:40;98413.00;;;23.90
35582;BMP180;21687;48.900;9.188;2022-07-23T00:18:06;98426.00;;;23.90
35582;BMP180;21687;48.900;9.188;2022-07-23T00:20:32;98417.00;;;23.80
35582;BMP180;21687;48.900;9.188;2022-07-23T00:22:59;98414.00;;;23.90
35582;BMP180;21687;48.900;9.188;2022-07-23T00:25:26;98416.00;;;23.80
35582;BMP180;21687;48.900;9.188;2022-07-23T00:27:52;98411.00;;;23.80
35582;BMP180;21687;48.900;9.188;2022-07-23T00:30:18;98410.00;;;23.70
35582;BMP180;21687;48.900;9.188;2022-07-23T00:32:53;98404.00;;;23.70
35582;BMP180;21687;48.900;9.188;2022-07-23T00:35:23;98396.00;;;23.60
35582;BMP180;21687;48.900;9.188;2022-07-23T00:37:50;98394.00;;;23.60
35582;BMP180;21687;48.900;9.188;2022-07-23T00:40:17;98396.00;;;23.70
35582;BMP180;21687;48.900;9.188;2022-07-23T00:42:43;98389.00;;;23.60
35582;BMP180;21687;48.900;9.188;2022-07-23T00:45:10;98391.00;;;23.60
35582;BMP180;21687;48.900;9.188;2022-07-23T00:47:36;98387.00;;;23.60
35582;BMP180;21687;48.900;9.188;2022-07-23T00:50:07;98395.00;;;23.60
35582;BMP180;21687;48.900;9.188;2022-07-23T00:52:35;98391.00;;;23.60
35582;BMP180;21687;48.900;9.188;2022-07-23T00:55:06;98387.00;;;23.50
35582;BMP180;21687;48.900;9.188;2022-07-23T00:57:32;98375.00;;;23.50
35582;BMP180;21687;48.900;9.188;2022-07-23T00:59:58;98371.00;;;23.40
35582;BMP180;21687;48.900;9.188;2022-07-23T01:02:26;98382.00;;;23.40
35582;BMP180;21687;48.900;9.188;2022-07-23T01:04:52;98396.00;;;23.30
35582;BMP180;21687;48.900;9.188;2022-07-23T01:07:19;98388.00;;;23.30
35582;BMP180;21687;48.900;9.188;2022-07-23T01:09:46;98377.00;;;23.30
35582;BMP180;21687;48.900;9.188;2022-07-23T01:12:13;98373.00;;;23.30
35582;BMP180;21687;48.900;9.188;2022-07-23T01:14:39;98363.00;;;23.20
35582;BMP180;21687;48.900;9.188;2022-07-23T01:17:06;98379.00;;;23.20
35582;BMP180;21687;48.900;9.188;2022-07-23T01:19:32;98386.00;;;23.20
35582;BMP180;21687;48.900;9.188;2022-07-23T01:21:58;98389.00;;;23.20
35582;BMP180;21687;48.900;9.188;2022-07-23T01:24:26;98378.00;;;23.20
35582;BMP180;21687;48.900;9.188;2022-07-23T01:26:53;98381.00;;;23.10
35582;BMP180;21687;48.900;9.188;2022-07-23T01:29:19;98370.00;;;23.10
35582;BMP180;21687;48.900;9.188;2022-07-23T01:31:47;98363.00;;;23.00
35582;BMP180;21687;48.900;9.188;2022-07-23T01:34:14;98381.00;;;23.00
35582;BMP180;21687;48.900;9.188;2022-07-23T01:36:40;98375.00;;;22.90
35582;BMP180;21687;48.900;9.188;2022-07-23T01:39:07;98366.00;;;22.90
35582;BMP180;21687;48.900;9.188;2022-07-23T01:41:34;98356.00;;;22.80
35582;BMP180;21687;48.900;9.188;2022-07-23T01:44:00;98356.00;;;22.70
35582;BMP180;21687;48.900;9.188;2022-07-23T01:46:27;98368.00;;;22.50
35582;BMP180;21687;48.900;9.188;2022-07-23T01:48:53;98368.00;;;22.50
35582;BMP180;21687;48.900;9.188;2022-07-23T01:51:19;98362.00;;;22.60
35582;BMP180;21687;48.900;9.188;2022-07-23T01:53:45;98373.00;;;22.50
35582;BMP180;21687;48.900;9.188;2022-07-23T01:56:12;98376.00;;;22.50
35582;BMP180;21687;48.900;9.188;2022-07-23T01:58:40;98376.00;;;22.50
35582;BMP180;21687;48.900;9.188;2022-07-23T02:01:07;98384.00;;;22.50
35582;BMP180;21687;48.900;9.188;2022-07-23T02:03:33;98387.00;;;22.40
35582;BMP180;21687;48.900;9.188;2022-07-23T02:05:59;98397.00;;;22.20
35582;BMP180;21687;48.900;9.188;2022-07-23T02:08:25;98392.00;;;22.10
35582;BMP180;21687;48.900;9.188;2022-07-23T02:10:51;98384.00;;;22.00
35582;BMP180;21687;48.900;9.188;2022-07-23T02:13:52;98376.00;;;21.90
35582;BMP180;21687;48.900;9.188;2022-07-23T02:16:18;98368.00;;;22.00
35582;BMP180;21687;48.900;9.188;2022-07-23T02:18:44;98375.00;;;22.00
35582;BMP180;21687;48.900;9.188;2022-07-23T02:21:12;98392.00;;;22.10
35582;BMP180;21687;48.900;9.188;2022-07-23T02:23:38;98418.00;;;22.00
35582;BMP180;21687;48.900;9.188;2022-07-23T02:26:04;98439.00;;;21.90
35582;BMP180;21687;48.900;9.188;2022-07-23T02:28:31;98424.00;;;21.90
35582;BMP180;21687;48.900;9.188;2022-07-23T02:30:57;98423.00;;;21.90
35582;BMP180;21687;48.900;9.188;2022-07-23T02:33:23;98422.00;;;21.80
35582;BMP180;21687;48.900;9.188;2022-07-23T02:35:49;98427.00;;;21.70
35582;BMP180;21687;48.900;9.188;2022-07-23T02:38:16;98442.00;;;21.70
35582;BMP180;21687;48.900;9.188;2022-07-23T02:40:42;98434.00;;;21.70
35582;BMP180;21687;48.900;9.188;2022-07-23T02:43:08;98442.00;;;21.70
35582;BMP180;21687;48.900;9.188;2022-07-23T02:45:34;98452.00;;;21.60
35582;BMP180;21687;48.900;9.188;2022-07-23T02:48:01;98457.00;;;21.50
35582;BMP180;21687;48.900;9.188;2022-07-23T02:50:27;98460.00;;;21.50
35582;BMP180;21687;48.900;9.188;2022-07-23T02:52:53;98449.00;;;21.50
35582;BMP180;21687;48.900;9.188;2022-07-23T02:55:19;98459.00;;;21.40
35582;BMP180;21687;48.900;9.188;2022-07-23T02:57:46;98463.00;;;21.40
35582;BMP180;21687;48.900;9.188;2022-07-23T03:00:12;98478.00;;;21.30
35582;BMP180;21687;48.900;9.188;2022-07-23T03:02:38;98476.00;;;21.30
35582;BMP180;21687;48.900;9.188;2022-07-23T03:05:05;98483.00;;;21.40
35582;BMP180;21687;48.900;9.188;2022-07-23T03:07:32;98484.00;;;21.40
35582;BMP180;21687;48.900;9.188;2022-07-23T03:09:58;98481.00;;;21.40
35582;BMP180;21687;48.900;9.188;2022-07-23T03:12:24;98472.00;;;21.50
35582;BMP180;21687;48.900;9.188;2022-07-23T03:14:51;98468.00;;;21.40
35582;BMP180;21687;48.900;9.188;2022-07-23T03:17:17;98481.00;;;21.40
35582;BMP180;21687;48.900;9.188;2022-07-23T03:19:43;98474.00;;;21.30
35582;BMP180;21687;48.900;9.188;2022-07-23T03:22:09;98477.00;;;21.30
35582;BMP180;21687;48.900;9.188;2022-07-23T03:24:36;98476.00;;;21.30
35582;BMP180;21687;48.900;9.188;2022-07-23T03:27:29;98481.00;;;21.30
35582;BMP180;21687;48.900;9.188;2022-07-23T03:29:58;98472.00;;;21.20
35582;BMP180;21687;48.900;9.188;2022-07-23T03:32:25;98471.00;;;21.20
35582;BMP180;21687;48.900;9.188;2022-07-23T03:34:52;98469.00;;;21.10
35582;BMP180;21687;48.900;9.188;2022-07-23T03:37:19;98467.00;;;21.10
35582;BMP180;21687;48.900;9.188;2022-07-23T03:39:45;98479.00;;;21.20
35582;BMP180;21687;48.900;9.188;2022-07-23T03:42:12;98480.00;;;21.20
35582;BMP180;21687;48.900;9.188;2022-07-23T03:44:38;98484.00;;;21.20
35582;BMP180;21687;48.900;9.188;2022-07-23T03:47:05;98489.00;;;21.10
35582;BMP180;21687;48.900;9.188;2022-07-23T03:49:32;98485.00;;;21.10
35582;BMP180;21687;48.900;9.188;2022-07-23T03:51:59;98481.00;;;21.00
35582;BMP180;21687;48.900;9.188;2022-07-23T03:54:25;98475.00;;;20.90
35582;BMP180;21687;48.900;9.188;2022-07-23T03:56:52;98485.00;;;20.90
35582;BMP180;21687;48.900;9.188;2022-07-23T03:59:18;98473.00;;;20.90
35582;BMP180;21687;48.900;9.188;2022-07-23T04:01:44;98479.00;;;20.80
35582;BMP180;21687;48.900;9.188;2022-07-23T04:04:11;98482.00;;;20.80
35582;BMP180;21687;48.900;9.188;2022-07-23T04:06:37;98485.00;;;20.90
35582;BMP180;21687;48.900;9.188;2022-07-23T04:09:03;98488.00;;;20.80
35582;BMP180;21687;48.900;9.188;2022-07-23T04:11:30;98487.00;;;20.90
35582;BMP180;21687;48.900;9.188;2022-07-23T04:13:56;98486.00;;;20.90
35582;BMP180;21687;48.900;9.188;2022-07-23T04:16:23;98484.00;;;21.00
35582;BMP180;21687;48.900;9.188;2022-07-23T04:18:49;98489.00;;;21.10
35582;BMP180;21687;48.900;9.188;2022-07-23T04:21:15;98483.00;;;21.20
35582;BMP180;21687;48.900;9.188;2022-07-23T04:23:41;98490.00;;;21.40
35582;BMP180;21687;48.900;9.188;2022-07-23T04:26:07;98490.00;;;21.50
35582;BMP180;21687;48.900;9.188;2022-07-23T04:28:34;98490.00;;;21.60
35582;BMP180;21687;48.900;9.188;2022-07-23T04:31:00;98485.00;;;21.60
35582;BMP180;21687;48.900;9.188;2022-07-23T04:33:26;98481.00;;;21.70
35582;BMP180;21687;48.900;9.188;2022-07-23T04:35:52;98484.00;;;21.70
35582;BMP180;21687;48.900;9.188;2022-07-23T04:38:19;98483.00;;;21.80
35582;BMP180;21687;48.900;9.188;2022-07-23T04:40:45;98487.00;;;21.80
35582;BMP180;21687;48.900;9.188;2022-07-23T04:43:11;98492.00;;;22.00
35582;BMP180;21687;48.900;9.188;2022-07-23T04:45:37;98498.00;;;22.00
35582;BMP180;21687;48.900;9.188;2022-07-23T04:48:04;98494.00;;;22.20
35582;BMP180;21687;48.900;9.188;2022-07-23T04:50:30;98495.00;;;22.20
35582;BMP180;21687;48.900;9.188;2022-07-23T04:52:56;98499.00;;;22.30
35582;BMP180;21687;48.900;9.188;2022-07-23T04:55:23;98503.00;;;22.50
35582;BMP180;21687;48.900;9.188;2022-07-23T04:57:49;98511.00;;;22.80
35582;BMP180;21687;48.900;9.188;2022-07-23T05:00:15;98510.00;;;23.10
35582;BMP180;21687;48.900;9.188;2022-07-23T05:02:42;98508.00;;;23.30
35582;BMP180;21687;48.900;9.188;2022-07-23T05:05:09;98504.00;;;23.60
35582;BMP180;21687;48.900;9.188;2022-07-23T05:07:35;98502.00;;;23.90
35582;BMP180;21687;48.900;9.188;2022-07-23T05:10:01;98499.00;;;23.80
35582;BMP180;21687;48.900;9.188;2022-07-23T05:12:27;98504.00;;;23.70
35582;BMP180;21687;48.900;9.188;2022-07-23T05:14:54;98507.00;;;23.60
35582;BMP180;21687;48.900;9.188;2022-07-23T05:17:20;98515.00;;;23.50
35582;BMP180;21687;48.900;9.188;2022-07-23T05:19:46;98510.00;;;23.50
35582;BMP180;21687;48.900;9.188;2022-07-23T05:22:12;98520.00;;;23.70
35582;BMP180;21687;48.900;9.188;2022-07-23T05:24:39;98518.00;;;24.00
35582;BMP180;21687;48.900;9.188;2022-07-23T05:27:05;98527.00;;;24.50
35582;BMP180;21687;48.900;9.188;2022-07-23T05:29:31;98529.00;;;24.70
35582;BMP180;21687;48.900;9.188;2022-07-23T05:31:57;98539.00;;;24.40
35582;BMP180;21687;48.900;9.188;2022-07-23T05:34:23;98530.00;;;24.00
35582;BMP180;21687;48.900;9.188;2022-07-23T05:36:50;98537.00;;;23.80
35582;BMP180;21687;48.900;9.188;2022-07-23T05:39:16;98555.00;;;23.50
35582;BMP180;21687;48.900;9.188;2022-07-23T05:41:42;98552.00;;;23.30
35582;BMP180;21687;48.900;9.188;2022-07-23T05:44:08;98551.00;;;23.10
35582;BMP180;21687;48.900;9.188;2022-07-23T05:46:34;98548.00;;;22.90
35582;BMP180;21687;48.900;9.188;2022-07-23T05:49:01;98555.00;;;22.90
35582;BMP180;21687;48.900;9.188;2022-07-23T05:51:27;98561.00;;;23.00
35582;BMP180;21687;48.900;9.188;2022-07-23T05:53:53;98564.00;;;22.90
35582;BMP180;21687;48.900;9.188;2022-07-23T05:56:19;98591.00;;;22.80
35582;BMP180;21687;48.900;9.188;2022-07-23T05:58:45;98600.00;;;22.50
35582;BMP180;21687;48.900;9.188;2022-07-23T06:01:12;98603.00;;;22.20
35582;BMP180;21687;48.900;9.188;2022-07-23T06:03:38;98599.00;;;22.00
35582;BMP180;21687;48.900;9.188;2022-07-23T06:06:05;98597.00;;;22.00
35582;BMP180;21687;48.900;9.188;2022-07-23T06:08:32;98586.00;;;21.80
35582;BMP180;21687;48.900;9.188;2022-07-23T06:10:58;98584.00;;;21.70
35582;BMP180;21687;48.900;9.188;2022-07-23T06:13:24;98591.00;;;21.60
35582;BMP180;21687;48.900;9.188;2022-07-23T06:15:50;98586.00;;;21.60
35582;BMP180;21687;48.900;9.188;2022-07-23T06:18:17;98571.00;;;21.60
35582;BMP180;21687;48.900;9.188;2022-07-23T06:20:43;98573.00;;;21.60
35582;BMP180;21687;48.900;9.188;2022-07-23T06:23:09;98551.00;;;21.50
35582;BMP180;21687;48.900;9.188;2022-07-23T06:25:36;98554.00;;;21.60
35582;BMP180;21687;48.900;9.188;2022-07-23T06:28:02;98561.00;;;21.60
35582;BMP180;21687;48.900;9.188;2022-07-23T06:30:28;98561.00;;;21.60
35582;BMP180;21687;48.900;9.188;2022-07-23T06:32:54;98568.00;;;21.70
35582;BMP180;21687;48.900;9.188;2022-07-23T06:35:21;98575.00;;;21.90
35582;BMP180;21687;48.900;9.188;2022-07-23T06:37:47;98588.00;;;22.40
35582;BMP180;21687;48.900;9.188;2022-07-23T06:40:13;98592.00;;;22.50
35582;BMP180;21687;48.900;9.188;2022-07-23T06:42:39;98582.00;;;22.40
35582;BMP180;21687;48.900;9.188;2022-07-23T06:45:07;98584.00;;;22.50
35582;BMP180;21687;48.900;9.188;2022-07-23T06:47:33;98590.00;;;22.60
35582;BMP180;21687;48.900;9.188;2022-07-23T06:49:59;98610.00;;;22.60
35582;BMP180;21687;48.900;9.188;2022-07-23T06:52:26;98611.00;;;22.30
35582;BMP180;21687;48.900;9.188;2022-07-23T06:54:52;98617.00;;;22.30
35582;BMP180;21687;48.900;9.188;2022-07-23T06:57:19;98627.00;;;22.10
35582;BMP180;21687;48.900;9.188;2022-07-23T06:59:45;98632.00;;;21.90
35582;BMP180;21687;48.900;9.188;2022-07-23T07:02:11;98655.00;;;21.80
35582;BMP180;21687;48.900;9.188;2022-07-23T07:04:37;98661.00;;;21.50
35582;BMP180;21687;48.900;9.188;2022-07-23T07:07:03;98665.00;;;21.40
35582;BMP180;21687;48.900;9.188;2022-07-23T07:09:30;98665.00;;;21.10
35582;BMP180;21687;48.900;9.188;2022-07-23T07:11:56;98646.00;;;20.80
35582;BMP180;21687;48.900;9.188;2022-07-23T07:14:22;98647.00;;;20.40
35582;BMP180;21687;48.900;9.188;2022-07-23T07:16:49;98642.00;;;20.00
35582;BMP180;21687;48.900;9.188;2022-07-23T07:19:15;98638.00;;;19.50
35582;BMP180;21687;48.900;9.188;2022-07-23T07:21:42;98629.00;;;19.10
35582;BMP180;21687;48.900;9.188;2022-07-23T07:24:08;98615.00;;;18.80
35582;BMP180;21687;48.900;9.188;2022-07-23T07:26:37;98607.00;;;18.70
35582;BMP180;21687;48.900;9.188;2022-07-23T07:29:05;98602.00;;;18.70
35582;BMP180;21687;48.900;9.188;2022-07-23T07:31:34;98607.00;;;18.40
35582;BMP180;21687;48.900;9.188;2022-07-23T07:34:04;98619.00;;;18.40
35582;BMP180;21687;48.900;9.188;2022-07-23T07:36:36;98619.00;;;18.40
35582;BMP180;21687;48.900;9.188;2022-07-23T07:39:04;98618.00;;;18.50
35582;BMP180;21687;48.900;9.188;2022-07-23T07:41:31;98627.00;;;18.70
35582;BMP180;21687;48.900;9.188;2022-07-23T07:44:01;98623.00;;;19.00
35582;BMP180;21687;48.900;9.188;2022-07-23T07:46:27;98632.00;;;19.40
35582;BMP180;21687;48.900;9.188;2022-07-23T07:48:54;98646.00;;;19.50
35582;BMP180;21687;48.900;9.188;2022-07-23T07:51:20;98639.00;;;19.70
35582;BMP180;21687;48.900;9.188;2022-07-23T07:53:46;98641.00;;;19.80
35582;BMP180;21687;48.900;9.188;2022-07-23T07:56:12;98643.00;;;19.70
35582;BMP180;21687;48.900;9.188;2022-07-23T07:58:39;98645.00;;;19.80
35582;BMP180;21687;48.900;9.188;2022-07-23T08:01:05;98650.00;;;19.80
35582;BMP180;21687;48.900;9.188;2022-07-23T08:03:31;98657.00;;;19.80
35582;BMP180;21687;48.900;9.188;2022-07-23T08:05:57;98662.00;;;19.70
35582;BMP180;21687;48.900;9.188;2022-07-23T08:08:24;98660.00;;;19.70
35582;BMP180;21687;48.900;9.188;2022-07-23T08:10:51;98645.00;;;19.60
35582;BMP180;21687;48.900;9.188;2022-07-23T08:13:17;98642.00;;;19.70
35582;BMP180;21687;48.900;9.188;2022-07-23T08:15:43;98656.00;;;19.80
35582;BMP180;21687;48.900;9.188;2022-07-23T08:18:10;98664.00;;;20.00
35582;BMP180;21687;48.900;9.188;2022-07-23T08:20:36;98655.00;;;20.00
35582;BMP180;21687;48.900;9.188;2022-07-23T08:23:07;98652.00;;;20.10
35582;BMP180;21687;48.900;9.188;2022-07-23T08:25:39;98656.00;;;20.30
35582;BMP180;21687;48.900;9.188;2022-07-23T08:28:08;98665.00;;;20.30
35582;BMP180;21687;48.900;9.188;2022-07-23T08:30:35;98662.00;;;20.40
35582;BMP180;21687;48.900;9.188;2022-07-23T08:33:04;98650.00;;;21.10
35582;BMP180;21687;48.900;9.188;2022-07-23T08:35:34;98646.00;;;22.10
35582;BMP180;21687;48.900;9.188;2022-07-23T08:38:03;98651.00;;;23.00
35582;BMP180;21687;48.900;9.188;2022-07-23T08:40:32;98652.00;;;23.60
35582;BMP180;21687;48.900;9.188;2022-07-23T08:42:59;98653.00;;;23.80
35582;BMP180;21687;48.900;9.188;2022-07-23T08:45:28;98655.00;;;23.90
35582;BMP180;21687;48.900;9.188;2022-07-23T08:47:57;98660.00;;;24.20
35582;BMP180;21687;48.900;9.188;2022-07-23T08:50:25;98667.00;;;24.30
35582;BMP180;21687;48.900;9.188;2022-07-23T08:52:53;98672.00;;;24.50
35582;BMP180;21687;48.900;9.188;2022-07-23T08:55:21;98663.00;;;24.50
35582;BMP180;21687;48.900;9.188;2022-07-23T08:57:50;98652.00;;;25.00
35582;BMP180;21687;48.900;9.188;2022-07-23T09:00:20;98641.00;;;25.10
35582;BMP180;21687;48.900;9.188;2022-07-23T09:02:48;98642.00;;;25.30
35582;BMP180;21687;48.900;9.188;2022-07-23T09:05:17;98643.00;;;25.80
35582;BMP180;21687;48.900;9.188;2022-07-23T09:08:20;98650.00;;;26.50
35582;BMP180;21687;48.900;9.188;2022-07-23T09:10:50;98649.00;;;26.40
35582;BMP180;21687;48.900;9.188;2022-07-23T09:13:30;98658.00;;;26.90
35582;BMP180;21687;48.900;9.188;2022-07-23T09:16:12;98655.00;;;27.50
35582;BMP180;21687;48.900;9.188;2022-07-23T09:21:12;98663.00;;;27.10
35582;BMP180;21687;48.900;9.188;2022-07-23T09:23:52;98661.00;;;26.60
35582;BMP180;21687;48.900;9.188;2022-07-23T09:26:34;98661.00;;;25.90
35582;BMP180;21687;48.900;9.188;2022-07-23T09:29:18;98667.00;;;26.10
35582;BMP180;21687;48.900;9.188;2022-07-23T09:31:55;98656.00;;;26.60
35582;BMP180;21687;48.900;9.188;2022-07-23T09:34:30;98657.00;;;27.10
35582;BMP180;21687;48.900;9.188;2022-07-23T09:37:13;98655.00;;;27.20
35582;BMP180;21687;48.900;9.188;2022-07-23T09:39:41;98662.00;;;27.30
35582;BMP180;21687;48.900;9.188;2022-07-23T09:42:17;98663.00;;;27.70
35582;BMP180;21687;48.900;9.188;2022-07-23T09:44:49;98655.00;;;27.20
35582;BMP180;21687;48.900;9.188;2022-07-23T09:47:16;98660.00;;;27.30
35582;BMP180;21687;48.900;9.188;2022-07-23T09:50:02;98656.00;;;28.20
35582;BMP180;21687;48.900;9.188;2022-07-23T09:52:44;98660.00;;;27.60
35582;BMP180;21687;48.900;9.188;2022-07-23T09:55:11;98662.00;;;27.50
35582;BMP180;21687;48.900;9.188;2022-07-23T09:57:39;98659.00;;;27.70
35582;BMP180;21687;48.900;9.188;2022-07-23T10:00:08;98657.00;;;27.40
35582;BMP180;21687;48.900;9.188;2022-07-23T10:02:37;98657.00;;;27.90
35582;BMP180;21687;48.900;9.188;2022-07-23T10:05:05;98662.00;;;28.00
35582;BMP180;21687;48.900;9.188;2022-07-23T10:07:39;98658.00;;;28.10
35582;BMP180;21687;48.900;9.188;2022-07-23T10:10:06;98657.00;;;27.90
35582;BMP180;21687;48.900;9.188;2022-07-23T10:12:33;98663.00;;;27.80
35582;BMP180;21687;48.900;9.188;2022-07-23T10:15:06;98665.00;;;28.00
35582;BMP180;21687;48.900;9.188;2022-07-23T10:17:33;98660.00;;;27.90
35582;BMP180;21687;48.900;9.188;2022-07-23T10:20:00;98668.00;;;27.60
35582;BMP180;21687;48.900;9.188;2022-07-23T10:22:56;98663.00;;;27.00
35582;BMP180;21687;48.900;9.188;2022-07-23T10:28:42;98670.00;;;27.00
35582;BMP180;21687;48.900;9.188;2022-07-23T10:34:20;98665.00;;;28.20
35582;BMP180;21687;48.900;9.188;2022-07-23T10:36:49;98669.00;;;27.90
35582;BMP180;21687;48.900;9.188;2022-07-23T10:39:30;98663.00;;;27.60
35582;BMP180;21687;48.900;9.188;2022-07-23T10:42:18;98659.00;;;27.70
35582;BMP180;21687;48.900;9.188;2022-07-23T10:44:48;98667.00;;;27.10
35582;BMP180;21687;48.900;9.188;2022-07-23T10:47:30;98665.00;;;27.50
35582;BMP180;21687;48.900;9.188;2022-07-23T10:50:23;98656.00;;;27.60
35582;BMP180;21687;48.900;9.188;2022-07-23T10:53:13;98654.00;;;27.90
35582;BMP180;21687;48.900;9.188;2022-07-23T10:55:46;98655.00;;;28.20
35582;BMP180;21687;48.900;9.188;2022-07-23T10:58:21;98656.00;;;28.30
35582;BMP180;21687;48.900;9.188;2022-07-23T11:00:48;98651.00;;;27.80
35582;BMP180;21687;48.900;9.188;2022-07-23T11:03:34;98653.00;;;28.20
35582;BMP180;21687;48.900;9.188;2022-07-23T11:06:05;98652.00;;;28.50
35582;BMP180;21687;48.900;9.188;2022-07-23T11:08:31;98659.00;;;28.80
35582;BMP180;21687;48.900;9.188;2022-07-23T11:16:06;98658.00;;;28.40
35582;BMP180;21687;48.900;9.188;2022-07-23T11:24:08;98656.00;;;28.10
35582;BMP180;21687;48.900;9.188;2022-07-23T11:26:47;98644.00;;;28.30
35582;BMP180;21687;48.900;9.188;2022-07-23T11:32:02;98644.00;;;28.80
35582;BMP180;21687;48.900;9.188;2022-07-23T11:34:40;98637.00;;;28.70
35582;BMP180;21687;48.900;9.188;2022-07-23T11:37:11;98637.00;;;28.10
35582;BMP180;21687;48.900;9.188;2022-07-23T11:39:39;98643.00;;;27.60
35582;BMP180;21687;48.900;9.188;2022-07-23T11:42:07;98648.00;;;27.30
35582;BMP180;21687;48.900;9.188;2022-07-23T11:44:38;98648.00;;;27.90
35582;BMP180;21687;48.900;9.188;2022-07-23T11:47:07;98654.00;;;28.10
35582;BMP180;21687;48.900;9.188;2022-07-23T11:49:35;98649.00;;;28.30
35582;BMP180;21687;48.900;9.188;2022-07-23T11:52:21;98647.00;;;28.40
35582;BMP180;21687;48.900;9.188;2022-07-23T11:54:52;98642.00;;;28.60
35582;BMP180;21687;48.900;9.188;2022-07-23T11:57:21;98656.00;;;28.60
35582;BMP180;21687;48.900;9.188;2022-07-23T11:59:55;98642.00;;;28.60
35582;BMP180;21687;48.900;9.188;2022-07-23T12:02:22;98632.00;;;28.80
35582;BMP180;21687;48.900;9.188;2022-07-23T12:04:51;98640.00;;;29.10
35582;BMP180;21687;48.900;9.188;2022-07-23T12:07:33;98630.00;;;28.70
35582;BMP180;21687;48.900;9.188;2022-07-23T12:10:15;98639.00;;;28.60
35582;BMP180;21687;48.900;9.188;2022-07-23T12:12:44;98635.00;;;28.60
35582;BMP180;21687;48.900;9.188;2022-07-23T12:15:15;98625.00;;;28.70
35582;BMP180;21687;48.900;9.188;2022-07-23T12:17:44;98623.00;;;28.90
35582;BMP180;21687;48.900;9.188;2022-07-23T12:20:14;98631.00;;;28.90
35582;BMP180;21687;48.900;9.188;2022-07-23T12:22:43;98626.00;;;28.90
35582;BMP180;21687;48.900;9.188;2022-07-23T12:25:21;98632.00;;;29.30
35582;BMP180;21687;48.900;9.188;2022-07-23T12:28:01;98633.00;;;29.10
35582;BMP180;21687;48.900;9.188;2022-07-23T12:30:39;98623.00;;;28.70
35582;BMP180;21687;48.900;9.188;2022-07-23T12:33:08;98629.00;;;29.20
35582;BMP180;21687;48.900;9.188;2022-07-23T12:35:44;98632.00;;;29.10
35582;BMP180;21687;48.900;9.188;2022-07-23T12:38:13;98623.00;;;28.30
35582;BMP180;21687;48.900;9.188;2022-07-23T12:41:02;98628.00;;;28.30
35582;BMP180;21687;48.900;9.188;2022-07-23T12:43:37;98641.00;;;28.40
35582;BMP180;21687;48.900;9.188;2022-07-23T12:48:35;98634.00;;;27.80
35582;BMP180;21687;48.900;9.188;2022-07-23T12:51:14;98634.00;;;28.10
35582;BMP180;21687;48.900;9.188;2022-07-23T12:53:43;98639.00;;;28.40
35582;BMP180;21687;48.900;9.188;2022-07-23T12:56:12;98622.00;;;28.10
35582;BMP180;21687;48.900;9.188;2022-07-23T13:04:00;98639.00;;;28.20
35582;BMP180;21687;48.900;9.188;2022-07-23T13:09:23;98627.00;;;28.10
35582;BMP180;21687;48.900;9.188;2022-07-23T13:11:51;98637.00;;;28.20
35582;BMP180;21687;48.900;9.188;2022-07-23T13:14:18;98641.00;;;28.10
35582;BMP180;21687;48.900;9.188;2022-07-23T13:16:45;98632.00;;;28.10
35582;BMP180;21687;48.900;9.188;2022-07-23T13:19:12;98637.00;;;28.40
35582;BMP180;21687;48.900;9.188;2022-07-23T13:21:39;98634.00;;;28.20
35582;BMP180;21687;48.900;9.188;2022-07-23T13:24:06;98642.00;;;28.40
35582;BMP180;21687;48.900;9.188;2022-07-23T13:26:33;98640.00;;;28.60
35582;BMP180;21687;48.900;9.188;2022-07-23T13:28:59;98633.00;;;28.40
35582;BMP180;21687;48.900;9.188;2022-07-23T13:31:25;98634.00;;;28.60
35582;BMP180;21687;48.900;9.188;2022-07-23T13:33:52;98630.00;;;28.60
35582;BMP180;21687;48.900;9.188;2022-07-23T13:36:18;98629.00;;;28.60
35582;BMP180;21687;48.900;9.188;2022-07-23T13:38:45;98626.00;;;28.60
35582;BMP180;21687;48.900;9.188;2022-07-23T13:41:11;98637.00;;;28.60
35582;BMP180;21687;48.900;9.188;2022-07-23T13:43:37;98626.00;;;28.60
35582;BMP180;21687;48.900;9.188;2022-07-23T13:46:04;98632.00;;;28.60
35582;BMP180;21687;48.900;9.188;2022-07-23T13:48:30;98621.00;;;28.80
35582;BMP180;21687;48.900;9.188;2022-07-23T13:50:57;98612.00;;;29.20
35582;BMP180;21687;48.900;9.188;2022-07-23T13:53:24;98615.00;;;29.50
35582;BMP180;21687;48.900;9.188;2022-07-23T13:55:52;98621.00;;;29.70
35582;BMP180;21687;48.900;9.188;2022-07-23T13:58:19;98622.00;;;29.60
35582;BMP180;21687;48.900;9.188;2022-07-23T14:00:50;98607.00;;;29.60
35582;BMP180;21687;48.900;9.188;2022-07-23T14:03:17;98616.00;;;29.50
35582;BMP180;21687;48.900;9.188;2022-07-23T14:05:44;98609.00;;;29.30
35582;BMP180;21687;48.900;9.188;2022-07-23T14:08:11;98609.00;;;29.60
35582;BMP180;21687;48.900;9.188;2022-07-23T14:10:40;98602.00;;;29.50
35582;BMP180;21687;48.900;9.188;2022-07-23T14:13:23;98607.00;;;29.80
35582;BMP180;21687;48.900;9.188;2022-07-23T14:15:55;98609.00;;;29.90
35582;BMP180;21687;48.900;9.188;2022-07-23T14:18:34;98610.00;;;29.60
35582;BMP180;21687;48.900;9.188;2022-07-23T14:21:03;98608.00;;;29.50
35582;BMP180;21687;48.900;9.188;2022-07-23T14:23:30;98605.00;;;29.70
35582;BMP180;21687;48.900;9.188;2022-07-23T14:25:56;98608.00;;;29.80
35582;BMP180;21687;48.900;9.188;2022-07-23T14:28:23;98605.00;;;29.70
35582;BMP180;21687;48.900;9.188;2022-07-23T14:30:49;98603.00;;;30.00
35582;BMP180;21687;48.900;9.188;2022-07-23T14:33:15;98608.00;;;29.70
35582;BMP180;21687;48.900;9.188;2022-07-23T14:35:42;98616.00;;;29.80
35582;BMP180;21687;48.900;9.188;2022-07-23T14:38:08;98605.00;;;29.90
35582;BMP180;21687;48.900;9.188;2022-07-23T14:40:35;98607.00;;;30.20
35582;BMP180;21687;48.900;9.188;2022-07-23T14:43:01;98597.00;;;30.20
35582;BMP180;21687;48.900;9.188;2022-07-23T14:45:27;98611.00;;;30.20
35582;BMP180;21687;48.900;9.188;2022-07-23T14:47:56;98606.00;;;29.70
35582;BMP180;21687;48.900;9.188;2022-07-23T14:50:22;98608.00;;;30.00